Time;durP1;ratioP1;P1;durP2;ratioP2;P2;SDS_P1;SDS_P2;PMS_P1;PMS_P2;Temp;Humidity;BMP_temperature;BMP_pressure;BME280_temperature;BME280_humidity;BME280_pressure;Samples;Min_cycle;Max_cycle;Signal;HPM_P1;HPM_P2
2023/05/28 00:01:30;;;;;;;;;;;15.70;99.80;;;;;;7334170;19;111861;-65
2023/05/28 00:03:58;;;;;;;;;;;15.80;99.40;;;;;;7342766;19;109668;-65
2023/05/28 00:06:25;;;;;;;;;;;15.70;99.10;;;;;;7331683;19;110302;-66
2023/05/28 00:08:52;;;;;;;;;;;15.70;98.90;;;;;;7332531;19;110804;-66
2023/05/28 00:11:20;;;;;;;;;;;15.70;99.10;;;;;;7331281;19;110203;-66
2023/05/28 00:13:47;;;;;;;;;;;15.70;99.30;;;;;;7336006;19;109985;-66
2023/05/28 00:16:14;;;;;;;;;;;15.60;99.00;;;;;;7327005;19;110266;-66
2023/05/28 00:18:41;;;;;;;;;;;15.60;99.10;;;;;;7336078;19;111861;-69
2023/05/28 00:21:10;;;;;;;;;;;15.60;99.00;;;;;;7334529;19;109406;-66
2023/05/28 00:23:37;;;;;;;;;;;15.50;99.80;;;;;;7338160;19;109711;-65
2023/05/28 00:26:05;;;;;;;;;;;15.40;99.90;;;;;;7332939;19;110486;-66
2023/05/28 00:28:32;;;;;;;;;;;15.30;99.50;;;;;;7336123;19;109793;-66
2023/05/28 00:30:59;;;;;;;;;;;15.30;99.80;;;;;;7333364;19;111104;-66
2023/05/28 00:33:26;;;;;;;;;;;15.30;99.90;;;;;;7337409;19;109631;-66
2023/05/28 00:35:55;;;;;;;;;;;15.30;99.90;;;;;;7334144;19;109582;-66
2023/05/28 00:38:23;;;;;;;;;;;15.30;99.60;;;;;;7334334;19;111242;-66
2023/05/28 00:40:50;;;;;;;;;;;15.30;99.80;;;;;;7334480;19;110107;-66
2023/05/28 00:43:19;;;;;;;;;;;15.20;99.40;;;;;;7330222;19;110656;-66
2023/05/28 00:45:48;;;;;;;;;;;15.20;99.20;;;;;;7338189;19;110526;-66
2023/05/28 00:48:15;;;;;;;;;;;15.20;99.90;;;;;;7336091;19;110046;-66
2023/05/28 00:50:43;;;;;;;;;;;15.20;99.90;;;;;;7334000;19;110615;-66
2023/05/28 00:53:11;;;;;;;;;;;15.20;99.70;;;;;;7335599;19;109597;-66
2023/05/28 00:55:39;;;;;;;;;;;15.20;99.80;;;;;;7327753;19;111250;-66
2023/05/28 00:58:07;;;;;;;;;;;15.20;99.90;;;;;;7330175;19;111564;-66
2023/05/28 01:00:35;;;;;;;;;;;15.20;99.90;;;;;;7333897;19;109942;-66
2023/05/28 01:03:02;;;;;;;;;;;15.10;99.60;;;;;;7334300;19;109902;-66
2023/05/28 01:05:34;;;;;;;;;;;15.10;99.90;;;;;;7330321;19;110533;-66
2023/05/28 01:08:02;;;;;;;;;;;15.10;99.90;;;;;;7334177;19;109741;-66
2023/05/28 01:10:31;;;;;;;;;;;15.00;99.90;;;;;;7335680;19;110335;-65
2023/05/28 01:12:58;;;;;;;;;;;15.00;99.90;;;;;;7330496;19;111125;-65
2023/05/28 01:15:25;;;;;;;;;;;15.00;99.90;;;;;;7333229;19;110973;-65
2023/05/28 01:17:57;;;;;;;;;;;15.00;99.90;;;;;;7330202;19;111083;-65
2023/05/28 01:20:28;;;;;;;;;;;14.90;99.90;;;;;;7333552;19;111418;-65
2023/05/28 01:23:00;;;;;;;;;;;14.80;99.90;;;;;;7331717;19;109849;-65
2023/05/28 01:25:27;;;;;;;;;;;14.70;99.90;;;;;;7329604;19;110885;-66
2023/05/28 01:27:54;;;;;;;;;;;14.70;99.90;;;;;;7330154;19;111321;-65
2023/05/28 01:30:21;;;;;;;;;;;14.60;99.90;;;;;;7331261;19;113283;-65
2023/05/28 01:32:48;;;;;;;;;;;14.50;99.90;;;;;;7333993;19;110685;-66
2023/05/28 01:35:15;;;;;;;;;;;14.50;99.90;;;;;;7332312;19;110253;-66
2023/05/28 01:37:48;;;;;;;;;;;14.60;99.90;;;;;;7330033;19;129934;-65
2023/05/28 01:40:16;;;;;;;;;;;14.60;99.90;;;;;;7331252;19;110277;-65
2023/05/28 01:42:47;;;;;;;;;;;14.60;99.90;;;;;;7331037;19;110152;-66
2023/05/28 01:45:15;;;;;;;;;;;14.60;99.90;;;;;;7332513;19;111141;-66
2023/05/28 01:47:42;;;;;;;;;;;14.60;99.90;;;;;;7331547;19;109715;-65
2023/05/28 01:50:11;;;;;;;;;;;14.60;99.90;;;;;;7324462;19;110959;-66
2023/05/28 01:52:38;;;;;;;;;;;14.60;99.90;;;;;;7337243;19;111446;-66
2023/05/28 01:55:08;;;;;;;;;;;14.60;99.90;;;;;;7331269;19;110822;-65
2023/05/28 01:57:35;;;;;;;;;;;14.60;99.90;;;;;;7325169;19;110669;-65
2023/05/28 02:00:03;;;;;;;;;;;14.60;99.90;;;;;;7330861;19;110231;-65
2023/05/28 02:02:30;;;;;;;;;;;14.50;99.90;;;;;;7332498;19;111119;-65
2023/05/28 02:04:58;;;;;;;;;;;14.50;99.90;;;;;;7321507;19;110098;-65
2023/05/28 02:07:25;;;;;;;;;;;14.60;99.90;;;;;;7332256;19;111979;-65
2023/05/28 02:09:52;;;;;;;;;;;14.60;99.90;;;;;;7329618;19;110053;-64
2023/05/28 02:12:19;;;;;;;;;;;14.40;99.90;;;;;;7328445;19;110483;-66
2023/05/28 02:14:46;;;;;;;;;;;14.30;99.90;;;;;;7335689;19;112531;-65
2023/05/28 02:17:13;;;;;;;;;;;14.20;99.90;;;;;;7332784;19;111194;-65
2023/05/28 02:19:40;;;;;;;;;;;14.10;99.90;;;;;;7326439;19;109725;-70
2023/05/28 02:22:11;;;;;;;;;;;14.10;99.90;;;;;;7333393;19;109685;-65
2023/05/28 02:24:39;;;;;;;;;;;14.00;99.90;;;;;;7331149;19;112855;-66
2023/05/28 02:27:06;;;;;;;;;;;14.00;99.90;;;;;;7330697;19;110452;-65
2023/05/28 02:29:34;;;;;;;;;;;14.00;99.90;;;;;;7327731;19;109846;-65
2023/05/28 02:32:02;;;;;;;;;;;14.00;99.90;;;;;;7331853;19;110224;-66
2023/05/28 02:34:29;;;;;;;;;;;14.00;99.90;;;;;;7337729;19;109522;-65
2023/05/28 02:36:56;;;;;;;;;;;13.90;99.90;;;;;;7329479;19;110720;-65
2023/05/28 02:39:23;;;;;;;;;;;13.90;99.90;;;;;;7324229;19;111291;-65
2023/05/28 02:41:50;;;;;;;;;;;13.80;99.90;;;;;;7333910;19;110093;-65
2023/05/28 02:44:17;;;;;;;;;;;13.80;99.90;;;;;;7326260;19;110774;-65
2023/05/28 02:46:44;;;;;;;;;;;13.80;99.90;;;;;;7328976;19;109933;-65
2023/05/28 02:49:12;;;;;;;;;;;13.90;99.90;;;;;;7331106;19;110581;-66
2023/05/28 02:51:39;;;;;;;;;;;13.80;99.90;;;;;;7338143;19;110722;-66
2023/05/28 02:54:06;;;;;;;;;;;13.80;99.90;;;;;;7338102;19;109663;-66
2023/05/28 02:56:34;;;;;;;;;;;13.80;99.90;;;;;;7341035;19;111301;-65
2023/05/28 02:59:01;;;;;;;;;;;13.70;99.90;;;;;;7336719;19;111101;-65
2023/05/28 03:01:28;;;;;;;;;;;13.80;99.90;;;;;;7334644;19;110371;-66
2023/05/28 03:03:55;;;;;;;;;;;13.80;99.90;;;;;;7334805;19;112269;-66
2023/05/28 03:06:22;;;;;;;;;;;13.90;99.90;;;;;;7337579;19;112140;-66
2023/05/28 03:08:49;;;;;;;;;;;13.80;99.90;;;;;;7335952;19;109901;-65
2023/05/28 03:11:16;;;;;;;;;;;13.70;99.90;;;;;;7334525;19;110205;-66
2023/05/28 03:13:44;;;;;;;;;;;13.70;99.90;;;;;;7332307;19;109840;-65
2023/05/28 03:16:11;;;;;;;;;;;13.60;99.90;;;;;;7337933;19;109451;-65
2023/05/28 03:18:38;;;;;;;;;;;13.60;99.90;;;;;;7342704;19;110154;-66
2023/05/28 03:21:05;;;;;;;;;;;13.60;99.90;;;;;;7331928;19;111270;-65
2023/05/28 03:23:32;;;;;;;;;;;13.60;99.90;;;;;;7336086;19;110414;-65
2023/05/28 03:25:59;;;;;;;;;;;13.60;99.90;;;;;;7332353;19;110669;-65
2023/05/28 03:28:26;;;;;;;;;;;13.60;99.90;;;;;;7338289;19;111097;-67
2023/05/28 03:30:55;;;;;;;;;;;13.70;99.90;;;;;;7330399;19;112019;-66
2023/05/28 03:33:22;;;;;;;;;;;13.60;99.90;;;;;;7336226;19;109427;-66
2023/05/28 03:35:49;;;;;;;;;;;13.60;99.90;;;;;;7336649;19;109944;-65
2023/05/28 03:38:17;;;;;;;;;;;13.60;99.90;;;;;;7333136;19;112426;-66
2023/05/28 03:40:44;;;;;;;;;;;13.50;99.90;;;;;;7338860;19;111203;-65
2023/05/28 03:43:11;;;;;;;;;;;13.50;99.90;;;;;;7336400;19;112555;-66
2023/05/28 03:45:38;;;;;;;;;;;13.50;99.90;;;;;;7329905;19;109741;-65
2023/05/28 03:48:06;;;;;;;;;;;13.50;99.90;;;;;;7338149;19;109611;-65
2023/05/28 03:50:33;;;;;;;;;;;13.50;99.90;;;;;;7331572;19;110715;-65
2023/05/28 03:53:00;;;;;;;;;;;13.50;99.90;;;;;;7337107;19;109714;-66
2023/05/28 03:55:27;;;;;;;;;;;13.50;99.90;;;;;;7337580;19;110378;-66
2023/05/28 03:57:54;;;;;;;;;;;13.60;99.90;;;;;;7327958;19;110164;-65
2023/05/28 04:00:21;;;;;;;;;;;13.60;99.90;;;;;;7336425;19;110100;-66
2023/05/28 04:02:49;;;;;;;;;;;13.60;99.90;;;;;;7337732;19;112231;-66
2023/05/28 04:05:16;;;;;;;;;;;13.50;99.90;;;;;;7331498;19;109674;-66
2023/05/28 04:07:43;;;;;;;;;;;13.50;99.90;;;;;;7336198;19;109727;-66
2023/05/28 04:10:10;;;;;;;;;;;13.50;99.90;;;;;;7332842;19;111857;-66
2023/05/28 04:12:37;;;;;;;;;;;13.50;99.90;;;;;;7332144;19;109908;-66
2023/05/28 04:15:05;;;;;;;;;;;13.50;99.90;;;;;;7337021;19;110041;-65
2023/05/28 04:17:32;;;;;;;;;;;13.50;99.90;;;;;;7335960;19;110081;-66
2023/05/28 04:19:59;;;;;;;;;;;13.50;99.90;;;;;;7335329;19;110066;-65
2023/05/28 04:22:26;;;;;;;;;;;13.60;99.90;;;;;;7336221;19;110511;-65
2023/05/28 04:24:55;;;;;;;;;;;13.60;99.90;;;;;;7335966;19;109583;-66
2023/05/28 04:27:23;;;;;;;;;;;13.60;99.90;;;;;;7333947;19;109603;-70
2023/05/28 04:29:52;;;;;;;;;;;13.60;99.90;;;;;;7340693;19;109260;-70
2023/05/28 04:32:19;;;;;;;;;;;13.50;99.90;;;;;;7340974;19;109437;-73
2023/05/28 04:34:47;;;;;;;;;;;13.60;99.90;;;;;;7335818;19;111402;-72
2023/05/28 04:37:16;;;;;;;;;;;13.50;99.90;;;;;;7331660;19;110127;-75
2023/05/28 04:39:43;;;;;;;;;;;13.50;99.90;;;;;;7337218;19;110817;-70
2023/05/28 04:42:16;;;;;;;;;;;13.60;99.90;;;;;;7332906;19;110309;-69
2023/05/28 04:44:44;;;;;;;;;;;13.70;99.90;;;;;;7341127;19;112566;-69
2023/05/28 04:47:12;;;;;;;;;;;13.80;99.90;;;;;;7334057;19;110687;-68
2023/05/28 04:49:43;;;;;;;;;;;13.80;99.90;;;;;;7335058;19;110461;-69
2023/05/28 04:52:10;;;;;;;;;;;13.80;99.90;;;;;;7335495;19;109935;-72
2023/05/28 04:54:37;;;;;;;;;;;13.80;99.90;;;;;;7330095;19;109887;-68
2023/05/28 04:57:05;;;;;;;;;;;13.80;99.90;;;;;;7332412;19;113905;-71
2023/05/28 04:59:33;;;;;;;;;;;13.80;99.90;;;;;;7332655;19;109289;-71
2023/05/28 05:02:00;;;;;;;;;;;13.80;99.90;;;;;;7333774;19;110439;-68
2023/05/28 05:04:28;;;;;;;;;;;13.80;99.90;;;;;;7330699;19;110225;-66
2023/05/28 05:06:55;;;;;;;;;;;13.90;99.90;;;;;;7342401;19;109487;-67
2023/05/28 05:09:23;;;;;;;;;;;13.80;99.90;;;;;;7328478;19;110316;-66
2023/05/28 05:11:50;;;;;;;;;;;13.90;99.90;;;;;;7332354;19;109787;-69
2023/05/28 05:14:17;;;;;;;;;;;14.00;99.90;;;;;;7330657;19;110764;-67
2023/05/28 05:16:46;;;;;;;;;;;14.00;99.90;;;;;;7334609;19;110252;-69
2023/05/28 05:19:13;;;;;;;;;;;14.10;99.90;;;;;;7331112;19;111987;-67
2023/05/28 05:21:40;;;;;;;;;;;14.20;99.90;;;;;;7334628;19;110747;-67
2023/05/28 05:24:07;;;;;;;;;;;14.30;99.90;;;;;;7328810;19;111718;-69
2023/05/28 05:26:35;;;;;;;;;;;14.30;99.90;;;;;;7334353;19;110649;-67
2023/05/28 05:29:02;;;;;;;;;;;14.40;99.90;;;;;;7332320;19;109999;-68
2023/05/28 05:31:28;;;;;;;;;;;14.60;99.90;;;;;;7334248;19;109635;-67
2023/05/28 05:33:56;;;;;;;;;;;14.60;99.90;;;;;;7330140;19;112883;-75
2023/05/28 05:36:23;;;;;;;;;;;14.70;99.90;;;;;;7331934;19;112165;-71
2023/05/28 05:38:50;;;;;;;;;;;14.80;99.90;;;;;;7331544;19;110032;-68
2023/05/28 05:41:17;;;;;;;;;;;14.90;99.90;;;;;;7333195;19;112168;-69
2023/05/28 05:43:44;;;;;;;;;;;15.00;99.90;;;;;;7333181;19;110547;-72
2023/05/28 05:46:11;;;;;;;;;;;15.00;99.90;;;;;;7330991;19;109780;-68
2023/05/28 05:48:38;;;;;;;;;;;15.10;99.90;;;;;;7330204;19;109440;-71
2023/05/28 05:51:06;;;;;;;;;;;15.10;99.90;;;;;;7334336;19;111484;-72
2023/05/28 05:53:39;;;;;;;;;;;15.10;99.90;;;;;;7336002;19;109995;-66
2023/05/28 05:56:06;;;;;;;;;;;15.20;99.90;;;;;;7328003;19;110285;-69
2023/05/28 05:58:33;;;;;;;;;;;15.40;99.90;;;;;;7332778;19;109387;-66
2023/05/28 06:01:01;;;;;;;;;;;15.50;99.90;;;;;;7332304;19;110811;-66
2023/05/28 06:03:48;;;;;;;;;;;15.60;99.90;;;;;;7333022;19;112304;-86
2023/05/28 06:06:15;;;;;;;;;;;15.70;99.90;;;;;;7336208;19;110775;-87
2023/05/28 06:08:42;;;;;;;;;;;15.90;99.90;;;;;;7336127;19;111787;-85
2023/05/28 06:11:09;;;;;;;;;;;15.90;99.90;;;;;;7333913;19;111623;-86
2023/05/28 06:13:37;;;;;;;;;;;16.10;99.90;;;;;;7337110;19;111730;-66
2023/05/28 06:16:04;;;;;;;;;;;16.20;99.90;;;;;;7325849;19;110108;-66
2023/05/28 06:18:31;;;;;;;;;;;16.20;99.90;;;;;;7331675;19;109864;-66
2023/05/28 06:20:59;;;;;;;;;;;16.30;99.90;;;;;;7329167;19;111852;-65
2023/05/28 06:23:26;;;;;;;;;;;16.40;99.90;;;;;;7332335;19;113031;-65
2023/05/28 06:25:53;;;;;;;;;;;16.40;99.90;;;;;;7326733;19;111067;-65
2023/05/28 06:28:20;;;;;;;;;;;16.50;99.90;;;;;;7334704;19;111259;-65
2023/05/28 06:30:48;;;;;;;;;;;16.60;99.90;;;;;;7327873;19;110872;-65
2023/05/28 06:33:15;;;;;;;;;;;16.80;99.90;;;;;;7338987;19;109396;-65
2023/05/28 06:35:42;;;;;;;;;;;16.90;99.90;;;;;;7329968;19;110751;-65
2023/05/28 06:38:09;;;;;;;;;;;17.00;99.90;;;;;;7329203;19;110953;-65
2023/05/28 06:40:36;;;;;;;;;;;17.10;99.90;;;;;;7330185;19;111111;-66
2023/05/28 06:43:03;;;;;;;;;;;17.10;99.90;;;;;;7330748;19;110019;-66
2023/05/28 06:45:32;;;;;;;;;;;17.10;99.90;;;;;;7325308;19;110050;-66
2023/05/28 06:47:59;;;;;;;;;;;17.10;99.90;;;;;;7332985;19;110544;-66
2023/05/28 06:50:27;;;;;;;;;;;17.10;99.90;;;;;;7329031;19;111322;-66
2023/05/28 06:52:54;;;;;;;;;;;17.20;99.90;;;;;;7330242;19;109675;-65
2023/05/28 06:55:21;;;;;;;;;;;17.30;99.90;;;;;;7334644;19;111267;-66
2023/05/28 06:57:48;;;;;;;;;;;17.40;99.90;;;;;;7327247;19;109796;-66
2023/05/28 07:00:16;;;;;;;;;;;17.50;99.90;;;;;;7329474;19;113474;-65
2023/05/28 07:02:46;;;;;;;;;;;17.60;99.90;;;;;;7329477;19;111138;-66
2023/05/28 07:05:13;;;;;;;;;;;17.60;99.90;;;;;;7329958;19;111001;-66
2023/05/28 07:07:41;;;;;;;;;;;17.60;99.90;;;;;;7329733;19;109983;-66
2023/05/28 07:10:08;;;;;;;;;;;17.60;99.90;;;;;;7329190;19;110475;-65
2023/05/28 07:12:35;;;;;;;;;;;17.80;99.90;;;;;;7327660;19;110740;-66
2023/05/28 07:15:03;;;;;;;;;;;17.90;99.90;;;;;;7332958;19;110408;-65
2023/05/28 07:17:31;;;;;;;;;;;18.00;99.90;;;;;;7336326;19;110269;-65
2023/05/28 07:19:58;;;;;;;;;;;18.10;99.90;;;;;;7330122;19;110094;-65
2023/05/28 07:22:26;;;;;;;;;;;18.10;99.90;;;;;;7328841;19;112874;-65
2023/05/28 07:24:53;;;;;;;;;;;18.20;99.90;;;;;;7332842;19;110201;-65
2023/05/28 07:27:20;;;;;;;;;;;18.40;99.90;;;;;;7330417;19;110718;-66
2023/05/28 07:29:47;;;;;;;;;;;18.40;99.90;;;;;;7332255;19;110083;-65
2023/05/28 07:32:15;;;;;;;;;;;18.60;99.90;;;;;;7329405;19;109759;-65
2023/05/28 07:34:42;;;;;;;;;;;18.70;99.90;;;;;;7332749;19;109597;-65
2023/05/28 07:37:09;;;;;;;;;;;18.80;99.90;;;;;;7332495;19;110633;-65
2023/05/28 07:39:36;;;;;;;;;;;19.00;99.90;;;;;;7342490;19;110372;-65
2023/05/28 07:42:04;;;;;;;;;;;19.10;99.90;;;;;;7333838;19;110948;-66
2023/05/28 07:44:31;;;;;;;;;;;19.20;99.90;;;;;;7337301;19;110432;-65
2023/05/28 07:46:58;;;;;;;;;;;19.30;99.90;;;;;;7336307;19;112785;-65
2023/05/28 07:49:25;;;;;;;;;;;19.20;99.90;;;;;;7335709;19;115059;-65
2023/05/28 07:51:53;;;;;;;;;;;19.30;99.90;;;;;;7334013;19;110639;-64
2023/05/28 07:54:20;;;;;;;;;;;19.40;99.90;;;;;;7336989;19;110594;-64
2023/05/28 07:56:48;;;;;;;;;;;19.60;99.90;;;;;;7335635;19;111071;-65
2023/05/28 07:59:15;;;;;;;;;;;19.80;99.90;;;;;;7338024;19;114381;-65
2023/05/28 08:01:43;;;;;;;;;;;19.90;99.90;;;;;;7338710;19;110669;-65
2023/05/28 08:04:10;;;;;;;;;;;20.00;99.90;;;;;;7335114;19;109899;-68
2023/05/28 08:06:38;;;;;;;;;;;20.00;99.90;;;;;;7333749;19;109837;-65
2023/05/28 08:09:05;;;;;;;;;;;20.10;99.90;;;;;;7336569;19;111145;-69
2023/05/28 08:11:33;;;;;;;;;;;20.30;99.90;;;;;;7336374;19;109788;-65
2023/05/28 08:14:00;;;;;;;;;;;20.30;99.90;;;;;;7335013;19;109818;-65
2023/05/28 08:16:27;;;;;;;;;;;20.40;99.90;;;;;;7338012;19;110250;-65
2023/05/28 08:18:54;;;;;;;;;;;20.50;99.90;;;;;;7336365;19;109897;-65
2023/05/28 08:21:21;;;;;;;;;;;20.70;99.90;;;;;;7335596;19;109995;-65
2023/05/28 08:23:49;;;;;;;;;;;20.70;99.90;;;;;;7338465;19;110471;-65
2023/05/28 08:26:16;;;;;;;;;;;20.80;99.90;;;;;;7338418;19;109816;-65
2023/05/28 08:28:43;;;;;;;;;;;20.80;99.90;;;;;;7334080;19;110157;-65
2023/05/28 08:31:10;;;;;;;;;;;20.70;99.90;;;;;;7338568;19;110287;-65
2023/05/28 08:33:37;;;;;;;;;;;20.70;99.90;;;;;;7336302;19;111811;-65
2023/05/28 08:36:06;;;;;;;;;;;20.90;99.90;;;;;;7335812;19;111070;-65
2023/05/28 08:38:33;;;;;;;;;;;21.20;99.90;;;;;;7335692;19;110249;-65
2023/05/28 08:41:01;;;;;;;;;;;21.30;99.90;;;;;;7333863;19;114118;-65
2023/05/28 08:43:28;;;;;;;;;;;21.40;99.90;;;;;;7340474;19;110197;-65
2023/05/28 08:45:55;;;;;;;;;;;21.40;99.90;;;;;;7335934;19;109641;-65
2023/05/28 08:48:23;;;;;;;;;;;21.40;99.90;;;;;;7333429;19;110244;-65
2023/05/28 08:50:51;;;;;;;;;;;21.30;99.80;;;;;;7335637;19;110285;-65
2023/05/28 08:53:20;;;;;;;;;;;21.30;99.90;;;;;;7334046;19;109593;-65
2023/05/28 08:55:47;;;;;;;;;;;21.40;99.90;;;;;;7333734;19;111540;-66
2023/05/28 08:58:16;;;;;;;;;;;21.60;99.90;;;;;;7334774;19;110421;-65
2023/05/28 09:00:43;;;;;;;;;;;21.70;99.90;;;;;;7336221;19;110572;-66
2023/05/28 09:03:10;;;;;;;;;;;21.80;99.00;;;;;;7332371;19;111062;-65
2023/05/28 09:05:38;;;;;;;;;;;21.80;99.90;;;;;;7341039;19;109349;-65
2023/05/28 09:08:09;;;;;;;;;;;21.90;98.30;;;;;;7333931;19;110061;-65
2023/05/28 09:10:37;;;;;;;;;;;21.80;99.30;;;;;;7336783;19;110152;-65
2023/05/28 09:13:04;;;;;;;;;;;21.90;99.80;;;;;;7334264;19;109691;-65
2023/05/28 09:15:33;;;;;;;;;;;22.10;99.30;;;;;;7330648;19;110695;-65
2023/05/28 09:18:00;;;;;;;;;;;22.30;98.50;;;;;;7331632;19;109448;-65
2023/05/28 09:20:28;;;;;;;;;;;22.30;98.20;;;;;;7333212;19;109896;-65
2023/05/28 09:23:02;;;;;;;;;;;22.30;99.20;;;;;;7333815;19;114627;-65
2023/05/28 09:25:32;;;;;;;;;;;22.40;98.20;;;;;;7333289;19;109609;-65
2023/05/28 09:28:00;;;;;;;;;;;22.40;97.40;;;;;;7338551;19;110489;-65
2023/05/28 09:30:29;;;;;;;;;;;22.40;98.40;;;;;;7335266;19;109491;-66
2023/05/28 09:33:00;;;;;;;;;;;22.60;97.90;;;;;;7333819;19;109683;-65
2023/05/28 09:35:28;;;;;;;;;;;22.60;98.00;;;;;;7335174;19;110294;-67
2023/05/28 09:38:08;;;;;;;;;;;22.70;97.60;;;;;;7331856;19;110404;-65
2023/05/28 09:40:42;;;;;;;;;;;22.90;97.60;;;;;;7329779;19;110989;-65
2023/05/28 09:43:10;;;;;;;;;;;23.00;97.80;;;;;;7333819;19;110958;-64
2023/05/28 09:45:37;;;;;;;;;;;23.10;97.40;;;;;;7332865;19;109886;-66
2023/05/28 09:48:04;;;;;;;;;;;23.20;95.60;;;;;;7335789;19;109552;-65
2023/05/28 09:50:32;;;;;;;;;;;23.10;96.30;;;;;;7335445;19;110186;-66
2023/05/28 09:52:59;;;;;;;;;;;23.10;95.90;;;;;;7332625;19;110315;-66
2023/05/28 09:55:28;;;;;;;;;;;23.10;97.10;;;;;;7333327;19;111301;-66
2023/05/28 09:58:01;;;;;;;;;;;23.30;94.90;;;;;;7332018;19;109547;-66
2023/05/28 10:00:33;;;;;;;;;;;23.40;97.30;;;;;;7334608;19;110966;-66
2023/05/28 10:03:16;;;;;;;;;;;23.50;95.60;;;;;;7332368;19;114055;-66
2023/05/28 10:05:44;;;;;;;;;;;23.50;95.40;;;;;;7332186;19;109719;-66
2023/05/28 10:08:13;;;;;;;;;;;23.50;96.90;;;;;;7332960;19;109959;-66
2023/05/28 10:10:41;;;;;;;;;;;23.50;96.20;;;;;;7333269;19;110447;-64
2023/05/28 10:13:09;;;;;;;;;;;23.70;96.10;;;;;;7339179;19;109841;-65
2023/05/28 10:15:37;;;;;;;;;;;23.50;94.70;;;;;;7331419;19;110324;-65
2023/05/28 10:18:05;;;;;;;;;;;23.50;95.50;;;;;;7329309;19;110439;-70
2023/05/28 10:20:32;;;;;;;;;;;23.50;95.40;;;;;;7333925;19;109899;-65
2023/05/28 10:23:00;;;;;;;;;;;23.70;95.80;;;;;;7331782;19;111203;-66
2023/05/28 10:25:27;;;;;;;;;;;23.70;95.40;;;;;;7333440;19;109980;-65
2023/05/28 10:27:59;;;;;;;;;;;23.80;94.60;;;;;;7330771;19;109796;-65
2023/05/28 10:30:33;;;;;;;;;;;23.80;95.10;;;;;;7332114;19;112060;-65
2023/05/28 10:33:03;;;;;;;;;;;23.90;94.40;;;;;;7333858;19;110553;-65
2023/05/28 10:35:31;;;;;;;;;;;23.80;93.90;;;;;;7339532;19;109464;-65
2023/05/28 10:38:02;;;;;;;;;;;23.80;93.90;;;;;;7330899;19;111572;-65
2023/05/28 10:40:32;;;;;;;;;;;24.00;95.20;;;;;;7330586;19;109564;-65
2023/05/28 10:42:59;;;;;;;;;;;24.10;95.20;;;;;;7333126;19;110144;-65
2023/05/28 10:45:34;;;;;;;;;;;24.30;94.90;;;;;;7331668;19;110133;-65
2023/05/28 10:48:01;;;;;;;;;;;24.50;95.20;;;;;;7333532;19;110072;-65
2023/05/28 10:50:28;;;;;;;;;;;24.60;94.00;;;;;;7327462;19;110154;-65
2023/05/28 10:53:08;;;;;;;;;;;24.60;94.10;;;;;;7331196;19;111098;-68
2023/05/28 10:55:48;;;;;;;;;;;24.50;94.10;;;;;;7338516;19;109995;-65
2023/05/28 10:58:32;;;;;;;;;;;24.50;94.80;;;;;;7330427;19;111801;-65
2023/05/28 11:01:00;;;;;;;;;;;24.70;94.00;;;;;;7332216;19;109587;-67
2023/05/28 11:03:44;;;;;;;;;;;24.70;94.30;;;;;;7333021;19;110500;-65
2023/05/28 11:06:12;;;;;;;;;;;24.90;94.40;;;;;;7330136;19;111281;-66
2023/05/28 11:08:48;;;;;;;;;;;25.00;94.80;;;;;;7330185;19;112764;-65
2023/05/28 11:11:16;;;;;;;;;;;25.10;94.10;;;;;;7333394;19;111089;-65
2023/05/28 11:13:48;;;;;;;;;;;25.20;92.40;;;;;;7337537;19;109383;-65
2023/05/28 11:16:16;;;;;;;;;;;25.10;92.00;;;;;;7337017;19;111437;-65
2023/05/28 11:18:59;;;;;;;;;;;25.10;93.40;;;;;;7343912;19;111110;-65
2023/05/28 11:21:26;;;;;;;;;;;25.30;92.60;;;;;;7338988;19;111318;-66
2023/05/28 11:24:00;;;;;;;;;;;25.20;92.00;;;;;;7336083;19;110059;-65
2023/05/28 11:26:27;;;;;;;;;;;25.00;91.60;;;;;;7339478;19;110079;-65
2023/05/28 11:28:54;;;;;;;;;;;24.90;92.00;;;;;;7336866;19;111850;-65
2023/05/28 11:31:21;;;;;;;;;;;24.90;92.30;;;;;;7336557;19;110585;-65
2023/05/28 11:33:49;;;;;;;;;;;25.10;92.10;;;;;;7336744;19;109825;-65
2023/05/28 11:36:18;;;;;;;;;;;25.00;90.90;;;;;;7336245;19;110350;-66
2023/05/28 11:38:45;;;;;;;;;;;25.20;92.50;;;;;;7338333;19;110444;-65
2023/05/28 11:41:13;;;;;;;;;;;25.40;92.70;;;;;;7341215;19;109970;-65
2023/05/28 11:43:40;;;;;;;;;;;25.50;92.70;;;;;;7336103;19;110071;-66
2023/05/28 11:46:07;;;;;;;;;;;25.50;88.50;;;;;;7336790;19;110294;-66
2023/05/28 11:48:36;;;;;;;;;;;25.40;88.80;;;;;;7335715;19;110099;-65
2023/05/28 11:51:03;;;;;;;;;;;25.50;91.90;;;;;;7335133;19;110303;-65
2023/05/28 11:53:43;;;;;;;;;;;25.70;91.50;;;;;;7337120;19;111164;-65
2023/05/28 11:56:11;;;;;;;;;;;25.80;90.60;;;;;;7336239;19;109703;-66
2023/05/28 11:58:41;;;;;;;;;;;26.10;91.10;;;;;;7334171;19;110458;-65
2023/05/28 12:01:12;;;;;;;;;;;25.90;89.10;;;;;;7332554;19;110160;-65
2023/05/28 12:03:39;;;;;;;;;;;25.80;89.40;;;;;;7341731;19;110189;-86
2023/05/28 12:06:07;;;;;;;;;;;25.70;88.20;;;;;;7336404;19;110079;-87
2023/05/28 12:08:34;;;;;;;;;;;25.70;88.10;;;;;;7335230;19;112136;-86
2023/05/28 12:11:02;;;;;;;;;;;25.90;90.70;;;;;;7337187;19;111274;-87
2023/05/28 12:13:33;;;;;;;;;;;26.10;90.30;;;;;;7340239;19;110052;-86
2023/05/28 12:16:06;;;;;;;;;;;26.20;90.90;;;;;;7334618;19;113718;-87
2023/05/28 12:18:33;;;;;;;;;;;26.50;90.90;;;;;;7339956;19;112590;-87
2023/05/28 12:21:01;;;;;;;;;;;26.70;89.80;;;;;;7337289;19;109496;-86
2023/05/28 12:23:28;;;;;;;;;;;26.50;83.70;;;;;;7336310;19;111368;-86
2023/05/28 12:25:56;;;;;;;;;;;26.30;83.40;;;;;;7341416;19;111988;-86
2023/05/28 12:28:23;;;;;;;;;;;26.30;86.50;;;;;;7339530;19;110780;-86
2023/05/28 12:30:54;;;;;;;;;;;26.50;85.30;;;;;;7333256;19;110998;-86
2023/05/28 12:33:22;;;;;;;;;;;26.70;85.20;;;;;;7336473;19;109733;-87
2023/05/28 12:35:49;;;;;;;;;;;26.70;82.30;;;;;;7338629;19;110734;-85
2023/05/28 12:38:17;;;;;;;;;;;26.80;86.10;;;;;;7335704;19;111769;-86
2023/05/28 12:40:45;;;;;;;;;;;26.70;84.40;;;;;;7337052;19;109764;-88
2023/05/28 12:43:12;;;;;;;;;;;26.90;82.30;;;;;;7335809;19;110537;-84
2023/05/28 12:45:39;;;;;;;;;;;26.90;82.10;;;;;;7336756;19;111558;-87
2023/05/28 12:48:08;;;;;;;;;;;27.20;82.20;;;;;;7341406;19;109612;-86
2023/05/28 12:50:35;;;;;;;;;;;27.20;79.50;;;;;;7335093;19;112727;-86
2023/05/28 12:53:05;;;;;;;;;;;27.00;78.90;;;;;;7334890;19;109418;-87
2023/05/28 12:55:32;;;;;;;;;;;26.80;82.00;;;;;;7335733;19;111115;-85
2023/05/28 12:58:00;;;;;;;;;;;26.70;81.30;;;;;;7333908;19;111510;-87
2023/05/28 13:00:27;;;;;;;;;;;26.70;82.00;;;;;;7337256;19;110071;-87
2023/05/28 13:02:54;;;;;;;;;;;26.70;81.20;;;;;;7332674;19;110007;-86
2023/05/28 13:05:22;;;;;;;;;;;26.60;79.80;;;;;;7332922;19;111514;-86
2023/05/28 13:07:49;;;;;;;;;;;26.50;80.10;;;;;;7341154;19;109856;-84
2023/05/28 13:10:16;;;;;;;;;;;26.60;80.30;;;;;;7332032;19;111712;-86
2023/05/28 13:12:44;;;;;;;;;;;26.60;80.40;;;;;;7333034;19;110408;-86
2023/05/28 13:15:11;;;;;;;;;;;26.50;79.20;;;;;;7335422;19;110547;-87
2023/05/28 13:17:38;;;;;;;;;;;26.40;79.40;;;;;;7332100;19;111242;-86
2023/05/28 13:20:07;;;;;;;;;;;26.50;79.50;;;;;;7334888;19;110736;-85
2023/05/28 13:22:36;;;;;;;;;;;26.70;78.80;;;;;;7333293;19;113175;-86
2023/05/28 13:25:04;;;;;;;;;;;26.70;79.00;;;;;;7335581;19;111213;-86
2023/05/28 13:27:31;;;;;;;;;;;26.80;77.80;;;;;;7332281;19;109602;-85
2023/05/28 13:29:58;;;;;;;;;;;26.70;78.40;;;;;;7340857;19;110075;-87
2023/05/28 13:32:26;;;;;;;;;;;26.80;76.80;;;;;;7334289;19;109704;-85
2023/05/28 13:34:53;;;;;;;;;;;26.60;75.60;;;;;;7333479;19;112879;-86
2023/05/28 13:37:20;;;;;;;;;;;26.60;76.50;;;;;;7335626;19;112408;-84
2023/05/28 13:39:48;;;;;;;;;;;26.40;73.10;;;;;;7334050;19;113560;-85
2023/05/28 13:42:19;;;;;;;;;;;26.30;74.90;;;;;;7329706;19;112530;-86
2023/05/28 13:44:47;;;;;;;;;;;26.50;74.90;;;;;;7332992;19;111006;-86
2023/05/28 13:47:15;;;;;;;;;;;26.50;74.40;;;;;;7336847;19;109322;-85
2023/05/28 13:49:42;;;;;;;;;;;26.60;75.10;;;;;;7340899;19;110030;-85
2023/05/28 13:52:10;;;;;;;;;;;26.70;73.10;;;;;;7344936;19;111142;-85
2023/05/28 13:54:37;;;;;;;;;;;26.50;70.70;;;;;;7336498;19;110037;-85
2023/05/28 13:57:04;;;;;;;;;;;26.50;71.10;;;;;;7337519;19;110665;-85
2023/05/28 13:59:31;;;;;;;;;;;26.50;71.50;;;;;;7335471;19;110237;-85
2023/05/28 14:01:58;;;;;;;;;;;26.50;69.40;;;;;;7337734;19;110446;-86
2023/05/28 14:04:26;;;;;;;;;;;26.60;70.10;;;;;;7337137;19;111248;-86
2023/05/28 14:06:53;;;;;;;;;;;26.90;69.20;;;;;;7338137;19;110537;-85
2023/05/28 14:09:20;;;;;;;;;;;27.20;68.10;;;;;;7337200;19;110027;-85